createdAt,value
2017-10-11T00:00:06.209Z,27.20
2017-10-11T00:01:05.810Z,21.10
2017-10-11T00:02:06.311Z,21.70
2017-10-11T00:03:05.478Z,24.20
2017-10-11T00:04:05.682Z,21.40
2017-10-11T00:05:05.910Z,18.30
2017-10-11T00:06:05.436Z,22.90
2017-10-11T00:07:05.624Z,21.40
2017-10-11T00:08:06.113Z,18.90
2017-10-11T00:09:05.031Z,20.50
2017-10-11T00:10:06.348Z,19.60
2017-10-11T00:11:05.927Z,23.50
2017-10-11T00:12:05.422Z,22.30
2017-10-11T00:13:06.012Z,21.30
2017-10-11T00:14:05.954Z,22.90
2017-10-11T00:15:05.610Z,22.70
2017-10-11T00:16:06.135Z,22.80
2017-10-11T00:17:05.823Z,22.50
2017-10-11T00:18:05.333Z,18.60
2017-10-11T00:19:05.828Z,23.60
2017-10-11T00:20:06.336Z,29.60
2017-10-11T00:21:05.653Z,24.50
2017-10-11T00:22:05.282Z,23.90
2017-10-11T00:23:05.727Z,19.40
2017-10-11T00:24:06.502Z,23.20
2017-10-11T00:25:06.270Z,26.00
2017-10-11T00:26:05.807Z,22.20
2017-10-11T00:27:05.292Z,21.30
2017-10-11T00:28:05.843Z,23.60
2017-10-11T00:29:05.608Z,24.00
2017-10-11T00:30:06.442Z,28.10
2017-10-11T00:31:05.475Z,23.80
2017-10-11T00:32:05.491Z,27.10
2017-10-11T00:33:05.713Z,22.90
2017-10-11T00:34:05.906Z,25.70
2017-10-11T00:35:06.223Z,24.50
2017-10-11T00:36:05.744Z,23.10
2017-10-11T00:37:06.064Z,21.50
2017-10-11T00:38:05.632Z,22.70
2017-10-11T00:39:06.180Z,26.10
2017-10-11T00:40:05.788Z,30.10
2017-10-11T00:41:05.024Z,27.60
2017-10-11T00:42:05.165Z,30.90
2017-10-11T00:43:06.062Z,28.50
2017-10-11T00:44:05.628Z,25.00
2017-10-11T00:45:06.175Z,29.80
2017-10-11T00:46:05.822Z,30.00
2017-10-11T00:47:05.376Z,25.30
2017-10-11T00:48:05.906Z,29.60
2017-10-11T00:49:06.364Z,30.40
2017-10-11T00:50:06.330Z,28.60
2017-10-11T00:51:05.912Z,27.50
2017-10-11T00:52:05.516Z,23.70
2017-10-11T00:53:05.853Z,28.60
2017-10-11T00:54:04.976Z,30.70
2017-10-11T00:55:05.828Z,24.70
2017-10-11T00:56:05.055Z,25.40
2017-10-11T00:57:05.571Z,24.80
2017-10-11T00:58:05.968Z,28.30
2017-10-11T00:59:05.114Z,24.70
2017-10-11T01:00:05.642Z,30.00
2017-10-11T01:01:06.147Z,33.30
2017-10-11T01:02:05.635Z,30.90
2017-10-11T01:03:06.254Z,34.20
2017-10-11T01:04:05.806Z,29.50
2017-10-11T01:05:05.394Z,32.00
2017-10-11T01:06:05.004Z,35.10
2017-10-11T01:07:05.943Z,39.80
2017-10-11T01:08:05.543Z,41.60
2017-10-11T01:09:05.716Z,39.20
2017-10-11T01:10:05.926Z,44.40
2017-10-11T01:11:05.472Z,40.60
2017-10-11T01:12:05.960Z,34.30
2017-10-11T01:13:05.484Z,37.90
2017-10-11T01:14:05.691Z,44.70
2017-10-11T01:15:05.910Z,37.00
2017-10-11T01:16:04.976Z,45.70
2017-10-11T01:17:05.067Z,41.70
2017-10-11T01:18:05.595Z,39.00
2017-10-11T01:19:06.412Z,38.80
2017-10-11T01:20:05.953Z,36.00
2017-10-11T01:21:05.496Z,38.30
2017-10-11T01:22:06.050Z,36.70
2017-10-11T01:23:05.587Z,36.80
2017-10-11T01:24:06.049Z,33.30
2017-10-11T01:25:05.662Z,38.90
2017-10-11T01:26:06.657Z,44.00
2017-10-11T01:27:06.095Z,38.10
2017-10-11T01:28:05.750Z,35.90
2017-10-11T01:29:05.370Z,32.90
2017-10-11T01:30:05.697Z,33.00
2017-10-11T01:31:06.242Z,35.70
2017-10-11T01:32:05.724Z,35.10
2017-10-11T01:33:06.314Z,37.90
2017-10-11T01:34:05.617Z,33.20
2017-10-11T01:35:05.042Z,38.30
2017-10-11T01:36:05.586Z,35.20
2017-10-11T01:37:06.198Z,38.10
2017-10-11T01:38:05.827Z,35.90
2017-10-11T01:39:05.410Z,31.50
2017-10-11T01:40:05.555Z,33.10
2017-10-11T01:41:05.946Z,32.90
2017-10-11T01:42:05.422Z,31.10
2017-10-11T01:43:05.963Z,30.00
2017-10-11T01:44:05.628Z,33.20
2017-10-11T01:45:06.154Z,34.00
2017-10-11T01:46:05.498Z,32.40
2017-10-11T01:47:05.736Z,35.20
2017-10-11T01:48:06.015Z,34.70
2017-10-11T01:49:05.327Z,30.00
2017-10-11T01:50:05.917Z,33.70
2017-10-11T01:51:05.356Z,29.30
2017-10-11T01:52:05.899Z,30.30
2017-10-11T01:53:05.743Z,30.30
2017-10-11T01:54:06.038Z,30.00
2017-10-11T01:55:05.313Z,31.60
2017-10-11T01:56:05.950Z,29.50
2017-10-11T01:57:06.210Z,32.90
2017-10-11T01:58:06.116Z,29.90
2017-10-11T01:59:05.303Z,31.00
2017-10-11T02:00:05.445Z,29.20
2017-10-11T02:01:05.596Z,34.20
2017-10-11T02:02:06.202Z,28.80
2017-10-11T02:03:05.709Z,26.10
2017-10-11T02:04:05.863Z,28.30
2017-10-11T02:05:05.558Z,29.20
2017-10-11T02:06:06.002Z,27.60
2017-10-11T02:07:05.507Z,26.10
2017-10-11T02:08:06.379Z,27.60
2017-10-11T02:09:06.097Z,32.70
2017-10-11T02:10:05.810Z,29.00
2017-10-11T02:11:05.340Z,27.70
2017-10-11T02:12:05.649Z,27.50
2017-10-11T02:13:05.955Z,33.00
2017-10-11T02:14:05.516Z,28.60
2017-10-11T02:15:06.224Z,27.10
2017-10-11T02:16:05.776Z,27.10
2017-10-11T02:17:05.669Z,25.60
2017-10-11T02:18:05.601Z,24.20
2017-10-11T02:19:05.760Z,26.60
2017-10-11T02:20:05.584Z,23.70
2017-10-11T02:21:06.131Z,24.10
2017-10-11T02:22:05.260Z,24.60
2017-10-11T02:23:05.592Z,25.00
2017-10-11T02:24:05.715Z,24.80
2017-10-11T02:25:06.007Z,23.70
2017-10-11T02:26:05.533Z,22.30
2017-10-11T02:27:05.657Z,22.20
2017-10-11T02:28:06.630Z,24.30
2017-10-11T02:29:06.104Z,21.10
2017-10-11T02:30:05.243Z,22.90
2017-10-11T02:31:05.844Z,23.60
2017-10-11T02:32:05.523Z,23.50
2017-10-11T02:33:06.282Z,18.20
2017-10-11T02:34:06.252Z,20.20
2017-10-11T02:35:06.882Z,24.20
2017-10-11T02:36:06.921Z,24.50
2017-10-11T02:37:06.861Z,21.30
2017-10-11T02:38:06.642Z,21.80
2017-10-11T02:39:06.471Z,24.00
2017-10-11T02:40:05.907Z,25.30
2017-10-11T02:41:05.986Z,23.70
2017-10-11T02:42:06.675Z,21.10
2017-10-11T02:43:06.641Z,21.00
2017-10-11T02:44:07.238Z,20.70
2017-10-11T02:45:07.394Z,23.00
2017-10-11T02:46:06.606Z,23.00
2017-10-11T02:47:06.376Z,20.00
2017-10-11T02:48:06.236Z,22.00
2017-10-11T02:49:06.690Z,21.80
2017-10-11T02:50:06.890Z,23.70
2017-10-11T02:51:05.893Z,21.00
2017-10-11T02:52:06.764Z,21.30
2017-10-11T02:53:06.051Z,18.10
2017-10-11T02:54:05.822Z,19.10
2017-10-11T02:55:05.709Z,20.90
2017-10-11T02:56:05.953Z,20.20
2017-10-11T02:57:05.484Z,19.00
2017-10-11T02:58:06.045Z,23.60
2017-10-11T02:59:05.197Z,22.00
2017-10-11T03:00:05.636Z,18.80
2017-10-11T03:01:05.746Z,20.30
2017-10-11T03:02:05.583Z,24.20
2017-10-11T03:03:05.827Z,22.50
2017-10-11T03:04:05.376Z,23.60
2017-10-11T03:05:05.602Z,21.10
2017-10-11T03:06:06.335Z,23.90
2017-10-11T03:07:05.929Z,19.50
2017-10-11T03:08:05.419Z,21.10
2017-10-11T03:09:05.960Z,24.70
2017-10-11T03:10:05.478Z,20.30
2017-10-11T03:11:06.000Z,26.30
2017-10-11T03:12:06.416Z,24.20
2017-10-11T03:13:05.576Z,24.60
2017-10-11T03:14:06.078Z,30.40
2017-10-11T03:15:05.290Z,23.40
2017-10-11T03:16:05.414Z,23.80
2017-10-11T03:17:05.540Z,25.10
2017-10-11T03:18:05.612Z,24.50
2017-10-11T03:19:06.303Z,22.10
2017-10-11T03:20:05.388Z,20.40
2017-10-11T03:21:05.943Z,21.50
2017-10-11T03:22:05.573Z,21.10
2017-10-11T03:23:06.070Z,23.30
2017-10-11T03:24:05.651Z,22.90
2017-10-11T03:25:06.573Z,27.50
2017-10-11T03:26:05.614Z,21.80
2017-10-11T03:27:05.813Z,18.60
2017-10-11T03:28:05.942Z,20.30
2017-10-11T03:29:05.491Z,21.80
2017-10-11T03:30:06.175Z,19.10
2017-10-11T03:31:05.282Z,20.00
2017-10-11T03:32:06.086Z,19.60
2017-10-11T03:33:05.498Z,17.10
2017-10-11T03:34:05.870Z,16.90
2017-10-11T03:35:05.282Z,24.70
2017-10-11T03:36:06.181Z,19.00
2017-10-11T03:37:05.697Z,17.80
2017-10-11T03:38:06.253Z,18.90
2017-10-11T03:39:05.672Z,17.20
2017-10-11T03:40:06.274Z,18.20
2017-10-11T03:41:05.702Z,18.60
2017-10-11T03:42:05.988Z,17.90
2017-10-11T03:43:05.166Z,17.50
2017-10-11T03:44:05.858Z,20.60
2017-10-11T03:45:06.016Z,17.40
2017-10-11T03:46:05.517Z,16.30
2017-10-11T03:47:06.108Z,18.90
2017-10-11T03:48:05.586Z,16.20
2017-10-11T03:49:06.100Z,21.30
2017-10-11T03:50:05.597Z,18.60
2017-10-11T03:51:06.314Z,17.40
2017-10-11T03:52:05.756Z,17.20
2017-10-11T03:53:05.931Z,15.60
2017-10-11T03:54:05.331Z,22.20
2017-10-11T03:55:05.830Z,23.50
2017-10-11T03:56:05.521Z,19.40
2017-10-11T03:57:05.790Z,15.50
2017-10-11T03:58:06.345Z,17.40
2017-10-11T03:59:05.907Z,14.90
2017-10-11T04:00:05.531Z,16.90
2017-10-11T04:01:06.021Z,17.00
2017-10-11T04:02:05.155Z,19.10
2017-10-11T04:03:05.251Z,17.40
2017-10-11T04:04:05.810Z,17.90
2017-10-11T04:05:04.974Z,19.60
2017-10-11T04:06:05.474Z,18.70
2017-10-11T04:07:06.809Z,20.60
2017-10-11T04:08:05.351Z,21.80
2017-10-11T04:09:05.947Z,24.70
2017-10-11T04:10:05.289Z,22.80
2017-10-11T04:11:05.769Z,20.50
2017-10-11T04:12:05.022Z,21.60
2017-10-11T04:13:05.671Z,21.00
2017-10-11T04:14:05.426Z,25.80
2017-10-11T04:15:06.044Z,22.90
2017-10-11T04:16:05.564Z,21.50
2017-10-11T04:17:05.818Z,27.90
2017-10-11T04:18:05.611Z,28.90
2017-10-11T04:19:05.868Z,30.20
2017-10-11T04:20:05.181Z,27.90
2017-10-11T04:21:05.726Z,31.10
2017-10-11T04:22:06.741Z,35.60
2017-10-11T04:23:05.976Z,36.20
2017-10-11T04:24:05.143Z,33.30
2017-10-11T04:25:05.469Z,33.70
2017-10-11T04:26:05.707Z,33.20
2017-10-11T04:27:05.988Z,42.00
2017-10-11T04:28:05.607Z,37.00
2017-10-11T04:29:06.263Z,39.90
2017-10-11T04:30:06.050Z,37.10
2017-10-11T04:31:09.064Z,36.60
2017-10-11T04:32:18.678Z,30.80
2017-10-11T04:33:06.333Z,36.90
2017-10-11T04:34:06.217Z,36.10
2017-10-11T04:35:05.943Z,29.90
2017-10-11T04:36:05.522Z,30.50
2017-10-11T04:37:06.092Z,30.60
2017-10-11T04:38:05.699Z,31.90
2017-10-11T04:39:05.816Z,31.00
2017-10-11T04:40:04.965Z,34.00
2017-10-11T04:41:08.450Z,33.10
2017-10-11T04:42:05.709Z,32.80
2017-10-11T04:43:05.304Z,30.20
2017-10-11T04:44:05.935Z,32.40
2017-10-11T04:45:05.993Z,31.70
2017-10-11T04:46:05.521Z,30.30
2017-10-11T04:47:06.158Z,27.80
2017-10-11T04:48:05.502Z,25.80
2017-10-11T04:49:05.610Z,27.10
2017-10-11T04:50:06.112Z,27.40
2017-10-11T04:51:05.694Z,26.20
2017-10-11T04:52:06.136Z,28.80
2017-10-11T04:53:05.711Z,29.50
2017-10-11T04:54:06.556Z,25.60
2017-10-11T04:55:05.645Z,26.50
2017-10-11T04:56:05.793Z,27.80
2017-10-11T04:57:06.002Z,27.20
2017-10-11T04:58:05.565Z,25.30
2017-10-11T04:59:06.263Z,26.40
2017-10-11T05:00:05.512Z,22.00
2017-10-11T05:01:05.788Z,26.90
2017-10-11T05:02:04.915Z,24.90
2017-10-11T05:03:06.858Z,23.10
2017-10-11T05:04:05.720Z,26.70
2017-10-11T05:05:06.584Z,26.60
2017-10-11T05:06:05.104Z,22.10
2017-10-11T05:07:05.606Z,25.40
2017-10-11T05:08:06.257Z,22.60
2017-10-11T05:09:05.905Z,20.70
2017-10-11T05:10:06.104Z,22.00
2017-10-11T05:11:05.342Z,19.50
2017-10-11T05:12:05.589Z,23.90
2017-10-11T05:13:05.796Z,24.70
2017-10-11T05:14:05.209Z,22.80
2017-10-11T05:15:05.404Z,25.90
2017-10-11T05:16:06.689Z,19.70
2017-10-11T05:17:06.312Z,22.20
2017-10-11T05:18:06.033Z,17.60
2017-10-11T05:19:05.488Z,21.20
2017-10-11T05:20:05.677Z,20.00
2017-10-11T05:21:05.310Z,19.00
2017-10-11T05:22:05.918Z,18.90
2017-10-11T05:23:05.353Z,20.40
2017-10-11T05:24:05.901Z,19.70
2017-10-11T05:25:05.540Z,20.10
2017-10-11T05:26:06.084Z,22.00
2017-10-11T05:27:05.378Z,22.20
2017-10-11T05:28:05.379Z,19.00
2017-10-11T05:29:05.995Z,17.80
2017-10-11T05:30:05.182Z,19.50
2017-10-11T05:31:06.306Z,20.00
2017-10-11T05:32:05.926Z,21.80
2017-10-11T05:33:05.533Z,21.30
2017-10-11T05:34:06.104Z,17.00
2017-10-11T05:35:05.448Z,17.30
2017-10-11T05:36:06.393Z,15.70
2017-10-11T05:37:06.239Z,17.20
2017-10-11T05:38:05.808Z,15.40
2017-10-11T05:39:05.410Z,19.90
2017-10-11T05:40:05.732Z,17.80
2017-10-11T05:41:05.539Z,16.80
2017-10-11T05:42:06.091Z,16.30
2017-10-11T05:43:05.153Z,14.50
2017-10-11T05:44:06.408Z,17.50
2017-10-11T05:45:06.080Z,16.00
2017-10-11T05:46:06.337Z,13.60
2017-10-11T05:47:05.576Z,13.20
2017-10-11T05:48:05.979Z,14.70
2017-10-11T05:49:05.586Z,18.40
2017-10-11T05:50:06.134Z,14.10
2017-10-11T05:51:05.729Z,16.20
2017-10-11T05:52:06.799Z,16.40
2017-10-11T05:53:05.442Z,15.70
2017-10-11T05:54:05.593Z,14.40
2017-10-11T05:55:06.676Z,18.10
2017-10-11T05:56:05.883Z,14.40
2017-10-11T05:57:05.110Z,16.10
2017-10-11T05:58:05.821Z,17.70
2017-10-11T05:59:05.443Z,14.00
2017-10-11T06:00:05.860Z,16.50
2017-10-11T06:01:05.225Z,13.00
2017-10-11T06:02:05.785Z,14.20
2017-10-11T06:03:05.041Z,12.60
2017-10-11T06:04:05.214Z,13.10
2017-10-11T06:05:05.493Z,17.20
2017-10-11T06:06:05.816Z,13.90
2017-10-11T06:07:05.693Z,15.20
2017-10-11T06:08:06.247Z,16.80
2017-10-11T06:09:05.621Z,15.70
2017-10-11T06:10:06.290Z,15.80
2017-10-11T06:11:05.993Z,11.90
2017-10-11T06:12:05.610Z,15.40
2017-10-11T06:13:05.432Z,13.40
2017-10-11T06:14:06.841Z,16.10
2017-10-11T06:15:06.452Z,13.00
2017-10-11T06:16:05.837Z,14.00
2017-10-11T06:17:05.194Z,14.10
2017-10-11T06:18:05.854Z,20.90
2017-10-11T06:19:05.168Z,15.20
2017-10-11T06:20:06.233Z,14.70
2017-10-11T06:21:05.953Z,13.50
2017-10-11T06:22:05.656Z,15.50
2017-10-11T06:23:06.028Z,12.00
2017-10-11T06:24:06.214Z,12.50
2017-10-11T06:25:05.911Z,13.60
2017-10-11T06:26:05.662Z,13.30
2017-10-11T06:27:05.989Z,13.80
2017-10-11T06:28:06.141Z,12.00
2017-10-11T06:29:05.549Z,11.60
2017-10-11T06:30:06.163Z,12.50
2017-10-11T06:31:05.842Z,15.50
2017-10-11T06:32:06.841Z,11.70
2017-10-11T06:33:05.516Z,16.60
2017-10-11T06:34:05.915Z,13.80
2017-10-11T06:35:05.758Z,14.70
2017-10-11T06:36:05.160Z,12.00
2017-10-11T06:37:05.407Z,11.60
2017-10-11T06:38:05.584Z,12.40
2017-10-11T06:39:05.888Z,11.20
2017-10-11T06:40:07.375Z,11.30
2017-10-11T06:41:05.679Z,12.30
2017-10-11T06:42:06.499Z,14.30
2017-10-11T06:43:06.050Z,14.10
2017-10-11T06:44:06.213Z,17.50
2017-10-11T06:45:05.840Z,11.80
2017-10-11T06:46:05.562Z,16.50
2017-10-11T06:47:05.889Z,16.60
2017-10-11T06:48:06.049Z,13.10
2017-10-11T06:49:05.747Z,12.70
2017-10-11T06:50:05.481Z,11.30
2017-10-11T06:51:05.953Z,11.30
2017-10-11T06:52:05.611Z,13.50
2017-10-11T06:53:06.082Z,13.90
2017-10-11T06:54:05.811Z,10.20
2017-10-11T06:55:05.274Z,11.70
2017-10-11T06:56:05.937Z,12.60
2017-10-11T06:57:05.702Z,13.10
2017-10-11T06:58:06.434Z,13.70
2017-10-11T06:59:05.894Z,14.60
2017-10-11T07:00:05.729Z,13.30
2017-10-11T07:01:06.398Z,14.50
2017-10-11T07:02:05.798Z,13.30
2017-10-11T07:03:06.365Z,11.30
2017-10-11T07:04:06.103Z,11.80
2017-10-11T07:05:05.896Z,12.30
2017-10-11T07:06:05.641Z,10.30
2017-10-11T07:07:05.972Z,15.10
2017-10-11T07:08:05.680Z,15.70
2017-10-11T07:09:06.327Z,14.00
2017-10-11T07:10:05.784Z,15.00
2017-10-11T07:11:06.212Z,11.70
2017-10-11T07:12:05.607Z,10.80
2017-10-11T07:13:06.329Z,12.70
2017-10-11T07:14:06.058Z,11.40
2017-10-11T07:15:05.580Z,12.60
2017-10-11T07:16:06.323Z,13.80
2017-10-11T07:17:05.678Z,14.10
2017-10-11T07:18:07.103Z,12.50
2017-10-11T07:19:05.781Z,14.10
2017-10-11T07:20:06.669Z,11.70
2017-10-11T07:21:05.933Z,12.20
2017-10-11T07:22:05.341Z,10.80
2017-10-11T07:23:05.682Z,15.20
2017-10-11T07:24:06.256Z,12.00
2017-10-11T07:25:07.620Z,12.80
2017-10-11T07:26:05.924Z,14.50
2017-10-11T07:27:05.660Z,14.70
2017-10-11T07:28:06.007Z,10.70
2017-10-11T07:29:05.817Z,15.00
2017-10-11T07:30:05.733Z,12.80
2017-10-11T07:31:05.963Z,10.80
2017-10-11T07:32:05.741Z,11.10
2017-10-11T07:33:05.809Z,13.70
2017-10-11T07:34:05.720Z,12.50
2017-10-11T07:35:05.915Z,14.20
2017-10-11T07:36:05.900Z,11.20
2017-10-11T07:37:05.584Z,12.60
2017-10-11T07:38:06.349Z,12.00
2017-10-11T07:39:05.499Z,10.70
2017-10-11T07:40:06.229Z,13.30
2017-10-11T07:41:06.060Z,10.50
2017-10-11T07:42:05.914Z,12.30
2017-10-11T07:43:06.033Z,15.80
2017-10-11T07:44:05.723Z,11.00
2017-10-11T07:45:05.667Z,13.10
2017-10-11T07:46:05.577Z,14.20
2017-10-11T07:47:06.347Z,13.10
2017-10-11T07:48:05.819Z,13.50
2017-10-11T07:49:06.195Z,14.40
2017-10-11T07:50:05.859Z,16.10
2017-10-11T07:51:05.735Z,13.10
2017-10-11T07:52:06.086Z,13.70
2017-10-11T07:53:05.509Z,13.60
2017-10-11T07:54:05.882Z,19.40
2017-10-11T07:55:05.888Z,15.60
2017-10-11T07:56:05.742Z,10.60
2017-10-11T07:57:06.520Z,16.10
2017-10-11T07:58:06.182Z,12.20
2017-10-11T07:59:06.161Z,17.40
2017-10-11T08:00:06.042Z,15.20
2017-10-11T08:01:05.365Z,15.90
2017-10-11T08:02:06.057Z,15.50
2017-10-11T08:03:05.614Z,11.20
2017-10-11T08:04:06.090Z,18.10
2017-10-11T08:05:05.917Z,12.30
2017-10-11T08:06:05.751Z,16.80
2017-10-11T08:07:06.477Z,11.60
2017-10-11T08:08:06.513Z,14.40
2017-10-11T08:09:06.260Z,14.40
2017-10-11T08:10:06.022Z,14.10
2017-10-11T08:11:06.291Z,13.40
2017-10-11T08:12:05.898Z,13.10
2017-10-11T08:13:05.587Z,13.00
2017-10-11T08:14:06.060Z,13.00
2017-10-11T08:15:05.443Z,13.50
2017-10-11T08:16:06.502Z,11.50
2017-10-11T08:17:05.428Z,13.80
2017-10-11T08:18:05.675Z,17.90
2017-10-11T08:19:06.201Z,13.20
2017-10-11T08:20:05.885Z,17.90
2017-10-11T08:21:06.070Z,18.00
2017-10-11T08:22:05.739Z,15.30
2017-10-11T08:23:06.392Z,13.10
2017-10-11T08:24:06.105Z,12.60
2017-10-11T08:25:06.973Z,12.40
2017-10-11T08:26:05.678Z,12.80
2017-10-11T08:27:05.978Z,15.10
2017-10-11T08:28:05.689Z,15.00
2017-10-11T08:29:06.394Z,13.10
2017-10-11T08:30:06.049Z,14.90
2017-10-11T08:31:06.028Z,11.00
2017-10-11T08:32:05.596Z,11.80
2017-10-11T08:33:06.199Z,11.60
2017-10-11T08:34:06.111Z,14.70
2017-10-11T08:35:05.499Z,13.70
2017-10-11T08:36:05.826Z,13.80
2017-10-11T08:37:05.552Z,16.50
2017-10-11T08:38:06.227Z,15.10
2017-10-11T08:39:06.119Z,12.30
2017-10-11T08:40:05.749Z,13.40
2017-10-11T08:41:05.773Z,17.70
2017-10-11T08:42:06.594Z,22.10
2017-10-11T08:43:06.093Z,14.70
2017-10-11T08:44:05.835Z,15.90
2017-10-11T08:45:05.564Z,14.90
2017-10-11T08:46:06.767Z,13.00
2017-10-11T08:47:06.221Z,15.40
2017-10-11T08:48:06.149Z,10.40
2017-10-11T08:49:05.839Z,12.40
2017-10-11T08:50:06.272Z,12.10
2017-10-11T08:51:05.943Z,10.50
2017-10-11T08:52:06.036Z,11.90
2017-10-11T08:53:06.312Z,12.00
2017-10-11T08:54:06.054Z,12.60
2017-10-11T08:55:05.521Z,10.60
2017-10-11T08:56:05.987Z,10.40
2017-10-11T08:57:06.063Z,12.10
2017-10-11T08:58:05.772Z,11.70
2017-10-11T08:59:05.485Z,9.60
2017-10-11T09:00:06.103Z,13.50
2017-10-11T09:01:05.540Z,13.00
2017-10-11T09:02:06.892Z,10.90
2017-10-11T09:03:05.196Z,11.40
2017-10-11T09:04:05.694Z,10.90
2017-10-11T09:05:06.199Z,11.10
2017-10-11T09:06:06.204Z,8.90
2017-10-11T09:07:05.799Z,11.60
2017-10-11T09:08:06.410Z,8.40
2017-10-11T09:09:06.139Z,13.90
2017-10-11T09:10:05.992Z,10.50
2017-10-11T09:11:05.689Z,7.80
2017-10-11T09:12:06.502Z,8.10
2017-10-11T09:13:06.231Z,9.00
2017-10-11T09:14:06.424Z,8.60
2017-10-11T09:15:05.597Z,7.60
2017-10-11T09:16:06.371Z,10.40
2017-10-11T09:17:05.537Z,8.50
2017-10-11T09:18:06.270Z,11.00
2017-10-11T09:19:06.057Z,9.50
2017-10-11T09:20:05.961Z,9.10
2017-10-11T09:21:06.769Z,8.80
2017-10-11T09:22:06.626Z,7.00
2017-10-11T09:23:06.459Z,8.50
2017-10-11T09:24:06.729Z,7.40
2017-10-11T09:25:06.176Z,6.90
2017-10-11T09:26:05.782Z,9.70
2017-10-11T09:27:06.315Z,10.70
2017-10-11T09:28:06.816Z,9.20
2017-10-11T09:29:06.338Z,6.80
2017-10-11T09:30:06.388Z,10.30
2017-10-11T09:31:06.309Z,10.10
2017-10-11T09:32:06.092Z,8.20
2017-10-11T09:33:06.427Z,7.20
2017-10-11T09:34:05.953Z,8.00
2017-10-11T09:35:06.350Z,6.50
2017-10-11T09:36:06.140Z,6.40
2017-10-11T09:37:07.328Z,10.50
2017-10-11T09:38:06.048Z,6.60
2017-10-11T09:39:05.835Z,6.20
2017-10-11T09:40:05.486Z,6.50
2017-10-11T09:41:06.153Z,5.20
2017-10-11T09:42:05.904Z,5.10
2017-10-11T09:43:05.578Z,6.10
2017-10-11T09:44:06.277Z,6.60
2017-10-11T09:45:05.615Z,8.70
2017-10-11T09:46:06.544Z,6.50
2017-10-11T09:47:06.238Z,7.80
2017-10-11T09:48:06.034Z,4.50
2017-10-11T09:49:05.892Z,5.80
2017-10-11T09:50:05.398Z,8.20
2017-10-11T09:51:05.914Z,7.40
2017-10-11T09:52:05.858Z,4.50
2017-10-11T09:53:05.675Z,10.00
2017-10-11T09:54:06.364Z,4.70
2017-10-11T09:55:06.336Z,5.00
2017-10-11T09:56:06.059Z,4.80
2017-10-11T09:57:06.423Z,5.70
2017-10-11T09:58:05.932Z,5.10
2017-10-11T09:59:05.825Z,4.60
2017-10-11T10:00:06.330Z,5.80
2017-10-11T10:01:05.824Z,7.70
2017-10-11T10:02:05.350Z,7.10
2017-10-11T10:03:05.740Z,5.60
2017-10-11T10:04:05.656Z,4.80
2017-10-11T10:05:06.417Z,5.70
2017-10-11T10:06:05.868Z,5.70
2017-10-11T10:07:05.516Z,7.60
2017-10-11T10:08:06.323Z,3.80
2017-10-11T10:09:05.832Z,5.90
2017-10-11T10:10:05.624Z,6.20
2017-10-11T10:11:05.135Z,3.90
2017-10-11T10:12:06.598Z,4.60
2017-10-11T10:13:06.132Z,8.50
2017-10-11T10:14:05.666Z,3.80
2017-10-11T10:15:05.407Z,6.80
2017-10-11T10:16:08.892Z,4.80
2017-10-11T10:17:06.532Z,6.60
2017-10-11T10:18:06.164Z,4.10
2017-10-11T10:19:05.471Z,4.10
2017-10-11T10:20:06.078Z,5.50
2017-10-11T10:21:05.546Z,5.50
2017-10-11T10:22:06.344Z,3.60
2017-10-11T10:23:06.368Z,4.80
2017-10-11T10:24:06.140Z,3.70
2017-10-11T10:25:06.205Z,5.60
2017-10-11T10:26:05.652Z,4.50
2017-10-11T10:27:05.179Z,5.50
2017-10-11T10:28:06.396Z,4.30
2017-10-11T10:29:05.882Z,4.30
2017-10-11T10:30:05.851Z,5.80
2017-10-11T10:31:05.637Z,3.50
2017-10-11T10:32:06.031Z,5.30
2017-10-11T10:33:05.885Z,6.10
2017-10-11T10:34:05.709Z,6.10
2017-10-11T10:35:06.500Z,4.90
2017-10-11T10:36:06.085Z,3.80
2017-10-11T10:37:05.865Z,3.70
2017-10-11T10:38:05.684Z,3.80
2017-10-11T10:39:06.548Z,4.00
2017-10-11T10:40:05.634Z,4.70
2017-10-11T10:41:05.439Z,3.30
2017-10-11T10:42:05.995Z,4.60
2017-10-11T10:43:07.418Z,7.30
2017-10-11T10:44:06.818Z,6.80
2017-10-11T10:45:05.442Z,5.20
2017-10-11T10:46:05.827Z,3.50
2017-10-11T10:47:06.180Z,3.60
2017-10-11T10:48:06.327Z,3.60
2017-10-11T10:49:05.970Z,4.50
2017-10-11T10:50:05.910Z,3.00
2017-10-11T10:51:06.410Z,6.50
2017-10-11T10:52:06.248Z,4.00
2017-10-11T10:53:05.877Z,4.00
2017-10-11T10:54:05.511Z,3.20
2017-10-11T10:55:05.921Z,4.80
2017-10-11T10:56:05.985Z,7.00
2017-10-11T10:57:05.913Z,3.30
2017-10-11T10:58:05.106Z,4.00
2017-10-11T10:59:05.834Z,3.80
2017-10-11T11:00:06.087Z,4.10
2017-10-11T11:01:05.809Z,5.90
2017-10-11T11:02:05.631Z,2.80
2017-10-11T11:03:06.333Z,3.80
2017-10-11T11:04:06.020Z,3.10
2017-10-11T11:05:05.784Z,3.30
2017-10-11T11:06:05.612Z,2.60
2017-10-11T11:07:06.160Z,3.90
2017-10-11T11:08:05.907Z,5.00
2017-10-11T11:09:05.643Z,4.50
2017-10-11T11:10:06.066Z,2.70
2017-10-11T11:11:05.887Z,2.60
2017-10-11T11:12:05.251Z,4.80
2017-10-11T11:13:06.090Z,4.40
2017-10-11T11:14:18.235Z,3.10
2017-10-11T11:15:18.997Z,4.00
2017-10-11T11:16:18.662Z,4.00
2017-10-11T11:17:18.296Z,3.30
2017-10-11T11:18:18.908Z,3.20
2017-10-11T11:19:18.319Z,3.50
2017-10-11T11:20:18.647Z,4.40
2017-10-11T11:21:18.023Z,2.90
2017-10-11T11:22:18.760Z,3.60
2017-10-11T11:23:18.846Z,6.90
2017-10-11T11:24:18.687Z,3.40
2017-10-11T11:25:18.506Z,2.40
2017-10-11T11:26:18.308Z,5.20
2017-10-11T11:27:18.831Z,3.40
2017-10-11T11:28:18.380Z,3.40
2017-10-11T11:29:18.790Z,4.10
2017-10-11T11:30:18.718Z,3.00
2017-10-11T11:31:18.306Z,2.10
2017-10-11T11:32:18.428Z,3.90
2017-10-11T11:33:19.181Z,2.30
2017-10-11T11:34:18.932Z,5.90
2017-10-11T11:35:18.629Z,2.50
2017-10-11T11:36:18.777Z,3.70
2017-10-11T11:37:18.525Z,4.60
2017-10-11T11:38:18.106Z,3.20
2017-10-11T11:39:18.878Z,3.80
2017-10-11T11:40:18.571Z,2.00
2017-10-11T11:41:18.361Z,2.60
2017-10-11T11:42:19.096Z,2.60
2017-10-11T11:43:18.974Z,3.20
2017-10-11T11:44:18.946Z,6.00
2017-10-11T11:45:18.675Z,3.00
2017-10-11T11:46:18.450Z,2.60
2017-10-11T11:47:19.111Z,4.10
2017-10-11T11:48:18.802Z,2.60
2017-10-11T11:49:18.559Z,4.90
2017-10-11T11:50:18.406Z,2.40
2017-10-11T11:51:18.798Z,2.50
2017-10-11T11:52:18.779Z,2.10
2017-10-11T11:53:18.713Z,1.90
2017-10-11T11:54:18.773Z,3.70
2017-10-11T11:54:49.216Z,4.30
2017-10-11T11:55:49.722Z,3.90
2017-10-11T11:56:49.010Z,4.40
2017-10-11T11:57:49.708Z,2.40
2017-10-11T11:58:49.123Z,1.60
2017-10-11T11:59:50.087Z,2.50
2017-10-11T12:00:49.579Z,3.10
2017-10-11T12:01:49.372Z,1.90
2017-10-11T12:02:48.803Z,1.90
2017-10-11T12:03:49.706Z,1.60
2017-10-11T12:04:49.169Z,3.40
2017-10-11T12:05:49.788Z,1.70
2017-10-11T12:06:50.207Z,2.60
2017-10-11T12:07:50.116Z,2.60
2017-10-11T12:08:49.610Z,3.00
2017-10-11T12:09:49.442Z,4.50
2017-10-11T12:10:48.930Z,1.70
2017-10-11T12:11:49.432Z,3.60
2017-10-11T12:12:49.045Z,3.40
2017-10-11T12:13:49.591Z,3.80
2017-10-11T12:14:48.994Z,1.60
2017-10-11T12:15:49.961Z,3.20
2017-10-11T12:16:49.364Z,3.40
2017-10-11T12:17:49.137Z,7.40
2017-10-11T12:18:50.035Z,4.10
2017-10-11T12:19:49.497Z,2.60
2017-10-11T12:20:50.282Z,3.50
2017-10-11T12:21:49.509Z,1.40
2017-10-11T12:22:49.351Z,2.00
2017-10-11T12:23:49.964Z,2.30
2017-10-11T12:24:49.361Z,1.70
2017-10-11T12:25:48.817Z,1.80
2017-10-11T12:26:49.812Z,2.00
2017-10-11T12:27:49.541Z,5.30
2017-10-11T12:28:49.066Z,2.80
2017-10-11T12:29:49.876Z,1.80
2017-10-11T12:30:49.591Z,1.70
2017-10-11T12:31:49.343Z,1.70
2017-10-11T12:32:49.536Z,3.50
2017-10-11T12:33:49.392Z,1.70
2017-10-11T12:34:49.182Z,1.80
2017-10-11T12:35:49.632Z,1.40
2017-10-11T12:36:49.499Z,3.30
2017-10-11T12:37:49.075Z,4.30
2017-10-11T12:38:49.895Z,2.00
2017-10-11T12:39:50.402Z,3.00
2017-10-11T12:40:49.135Z,3.80
2017-10-11T12:41:49.671Z,2.10
2017-10-11T12:42:49.444Z,2.00
2017-10-11T12:43:49.301Z,2.20
2017-10-11T12:44:50.146Z,3.20
2017-10-11T12:45:49.363Z,2.20
2017-10-11T12:46:48.855Z,2.70
2017-10-11T12:47:49.857Z,2.00
2017-10-11T12:48:49.490Z,2.10
2017-10-11T12:49:49.616Z,1.70
2017-10-11T12:50:49.455Z,3.10
2017-10-11T12:51:49.406Z,2.30
2017-10-11T12:52:49.026Z,2.40
2017-10-11T12:53:49.903Z,2.90
2017-10-11T12:54:49.872Z,2.10
2017-10-11T12:55:49.671Z,2.30
2017-10-11T12:56:49.096Z,2.70
2017-10-11T12:57:49.931Z,2.20
2017-10-11T12:58:49.507Z,6.20